createdAt,value
2022-09-28T00:01:16.145Z,28.80
2022-09-28T00:03:49.112Z,27.50
2022-09-28T00:06:23.457Z,24.70
2022-09-28T00:08:56.002Z,23.10
2022-09-28T00:11:29.247Z,20.70
2022-09-28T00:14:03.822Z,20.30
2022-09-28T00:16:42.116Z,20.10
2022-09-28T00:19:14.897Z,19.60
2022-09-28T00:21:48.145Z,18.90
2022-09-28T00:24:24.040Z,18.90
2022-09-28T00:27:01.660Z,18.40
2022-09-28T00:29:35.597Z,15.20
2022-09-28T00:32:11.741Z,11.50
2022-09-28T00:34:46.947Z,9.70
2022-09-28T00:37:20.106Z,6.70
2022-09-28T00:39:52.094Z,7.00
2022-09-28T00:42:26.410Z,5.80
2022-09-28T00:44:59.187Z,4.80
2022-09-28T00:47:53.250Z,5.00
2022-09-28T00:50:31.467Z,5.10
2022-09-28T00:53:06.393Z,4.70
2022-09-28T00:55:43.071Z,5.60
2022-09-28T00:58:18.497Z,5.20
2022-09-28T01:00:51.130Z,5.00
2022-09-28T01:03:23.276Z,5.60
2022-09-28T01:05:57.425Z,4.70
2022-09-28T01:08:31.217Z,5.00
2022-09-28T01:11:04.324Z,4.70
2022-09-28T01:13:36.650Z,4.70
2022-09-28T01:16:20.617Z,4.30
2022-09-28T01:19:02.827Z,4.60
2022-09-28T01:21:49.937Z,4.60
2022-09-28T01:24:40.689Z,4.10
2022-09-28T01:27:20.721Z,3.80
2022-09-28T01:30:02.786Z,3.70
2022-09-28T01:32:42.555Z,3.50
2022-09-28T01:35:18.463Z,3.30
2022-09-28T01:37:54.207Z,3.00
2022-09-28T01:40:28.580Z,3.60
2022-09-28T01:43:05.563Z,3.20
2022-09-28T01:45:43.264Z,2.90
2022-09-28T01:48:20.824Z,3.10
2022-09-28T01:53:33.269Z,2.80
2022-09-28T01:56:12.616Z,2.80
2022-09-28T01:58:49.798Z,2.90
2022-09-28T02:01:26.355Z,3.20
2022-09-28T02:04:04.991Z,3.30
2022-09-28T02:06:42.025Z,3.00
2022-09-28T02:09:20.276Z,3.30
2022-09-28T02:11:59.118Z,3.40
2022-09-28T02:14:32.781Z,3.20
2022-09-28T02:17:06.783Z,3.30
2022-09-28T02:19:40.537Z,3.00
2022-09-28T02:22:23.501Z,3.20
2022-09-28T02:25:00.420Z,3.70
2022-09-28T02:30:11.403Z,2.90
2022-09-28T02:32:48.082Z,2.90
2022-09-28T02:37:52.111Z,2.60
2022-09-28T02:40:30.173Z,3.00
2022-09-28T02:43:11.698Z,3.50
2022-09-28T02:45:58.568Z,4.30
2022-09-28T02:49:00.235Z,5.80
2022-09-28T02:51:47.764Z,4.80
2022-09-28T02:54:31.403Z,5.50
2022-09-28T02:57:13.236Z,5.60
2022-09-28T02:59:55.498Z,5.50
2022-09-28T03:02:33.708Z,6.30
2022-09-28T03:05:20.655Z,6.60
2022-09-28T03:08:00.244Z,7.00
2022-09-28T03:10:38.772Z,8.00
2022-09-28T03:13:12.437Z,7.40
2022-09-28T03:15:48.646Z,8.10
2022-09-28T03:18:22.400Z,8.70
2022-09-28T03:20:54.408Z,9.50
2022-09-28T03:23:26.749Z,9.50
2022-09-28T03:25:58.648Z,10.40
2022-09-28T03:28:30.836Z,10.80
2022-09-28T03:31:03.901Z,11.30
2022-09-28T03:33:36.050Z,10.60
2022-09-28T03:36:09.648Z,11.20
2022-09-28T03:38:41.793Z,11.00
2022-09-28T03:41:13.728Z,11.50
2022-09-28T03:43:47.202Z,12.30
2022-09-28T03:46:19.479Z,11.90
2022-09-28T03:48:57.733Z,11.70
2022-09-28T03:51:29.708Z,13.60
2022-09-28T03:54:01.627Z,12.60
2022-09-28T03:56:33.571Z,14.60
2022-09-28T03:59:06.655Z,14.60
2022-09-28T04:01:38.813Z,15.20
2022-09-28T04:04:14.760Z,14.60
2022-09-28T04:06:46.889Z,15.30
2022-09-28T04:09:18.872Z,15.60
2022-09-28T04:12:03.281Z,16.30
2022-09-28T04:14:36.411Z,15.70
2022-09-28T04:17:08.857Z,17.00
2022-09-28T04:19:41.491Z,17.80
2022-09-28T04:22:45.429Z,17.70
2022-09-28T04:25:17.322Z,19.10
2022-09-28T04:28:07.555Z,17.90
2022-09-28T04:30:39.824Z,18.10
2022-09-28T04:33:11.804Z,18.00
2022-09-28T04:35:43.736Z,17.90
2022-09-28T04:38:20.679Z,17.60
2022-09-28T04:41:02.937Z,17.40
2022-09-28T04:43:34.932Z,16.90
2022-09-28T04:46:07.429Z,16.70
2022-09-28T04:48:47.283Z,17.60
2022-09-28T04:51:38.073Z,16.70
2022-09-28T04:54:10.290Z,16.60
2022-09-28T04:56:42.368Z,17.60
2022-09-28T04:59:14.695Z,17.50
2022-09-28T05:01:47.577Z,16.90
2022-09-28T05:04:34.517Z,18.00
2022-09-28T05:07:25.262Z,17.70
2022-09-28T05:09:57.165Z,17.60
2022-09-28T05:12:29.091Z,17.50
2022-09-28T05:15:01.056Z,17.00
2022-09-28T05:17:33.015Z,17.80
2022-09-28T05:20:14.935Z,17.00
2022-09-28T05:22:46.925Z,17.00
2022-09-28T05:25:18.974Z,16.60
2022-09-28T05:28:12.445Z,16.80
2022-09-28T05:31:05.865Z,16.90
2022-09-28T05:33:56.721Z,16.30
2022-09-28T05:36:30.331Z,16.70
2022-09-28T05:39:03.946Z,16.40
2022-09-28T05:41:36.729Z,16.80
2022-09-28T05:44:08.582Z,16.30
2022-09-28T05:46:41.130Z,17.30
2022-09-28T05:49:14.817Z,16.80
2022-09-28T05:51:46.888Z,18.10
2022-09-28T05:54:19.232Z,18.10
2022-09-28T05:56:51.884Z,17.20
2022-09-28T05:59:23.847Z,16.70
2022-09-28T06:01:55.808Z,16.70
2022-09-28T06:04:27.960Z,17.70
2022-09-28T06:07:00.101Z,17.70
2022-09-28T06:09:32.779Z,16.50
2022-09-28T06:12:07.715Z,15.30
2022-09-28T06:14:48.748Z,16.20
2022-09-28T06:17:20.782Z,16.60
2022-09-28T06:20:00.798Z,16.70
2022-09-28T06:22:55.504Z,17.40
2022-09-28T06:25:28.557Z,18.00
2022-09-28T06:28:07.200Z,17.70
2022-09-28T06:30:39.680Z,17.00
2022-09-28T06:33:16.435Z,17.70
2022-09-28T06:35:48.382Z,17.30
2022-09-28T06:38:20.558Z,17.90
2022-09-28T06:40:53.764Z,16.80
2022-09-28T06:43:25.772Z,16.50
2022-09-28T06:46:21.070Z,15.00
2022-09-28T06:49:18.629Z,13.60
2022-09-28T06:52:11.975Z,13.60
2022-09-28T06:55:02.422Z,13.30
2022-09-28T06:57:43.594Z,13.40
2022-09-28T07:00:17.560Z,12.20
2022-09-28T07:02:51.279Z,12.40
2022-09-28T07:05:54.173Z,12.00
2022-09-28T07:08:46.178Z,12.10
2022-09-28T07:11:44.807Z,11.60
2022-09-28T07:14:44.257Z,12.40
2022-09-28T07:17:19.642Z,12.10
2022-09-28T07:19:53.678Z,11.80
2022-09-28T07:22:41.276Z,12.30
2022-09-28T07:25:16.472Z,12.10
2022-09-28T07:27:52.920Z,12.20
2022-09-28T07:30:48.556Z,11.70
2022-09-28T07:33:43.655Z,10.60
2022-09-28T07:36:22.873Z,10.10
2022-09-28T07:38:56.189Z,10.30
2022-09-28T07:41:33.400Z,10.00
2022-09-28T07:44:07.714Z,10.20
2022-09-28T07:46:41.238Z,10.10
2022-09-28T07:49:25.080Z,10.20
2022-09-28T07:52:09.843Z,9.20
2022-09-28T07:55:12.115Z,8.30
2022-09-28T07:58:03.180Z,7.90
2022-09-28T08:00:51.937Z,8.50
2022-09-28T08:03:24.794Z,7.80
2022-09-28T08:06:01.770Z,8.00
2022-09-28T08:08:36.610Z,7.80
2022-09-28T08:11:10.614Z,8.40
2022-09-28T08:14:08.636Z,7.70
2022-09-28T08:16:59.540Z,7.60
2022-09-28T08:20:06.805Z,9.00
2022-09-28T08:22:40.368Z,8.30
2022-09-28T08:25:12.788Z,7.90
2022-09-28T08:27:44.589Z,8.40
2022-09-28T08:30:16.843Z,8.50
2022-09-28T08:33:07.973Z,8.70
2022-09-28T08:36:05.243Z,7.20
2022-09-28T08:39:00.206Z,7.30
2022-09-28T08:41:56.956Z,7.30
2022-09-28T08:44:50.888Z,7.20
2022-09-28T08:48:14.992Z,7.90
2022-09-28T08:51:07.361Z,7.50
2022-09-28T08:53:57.011Z,7.00
2022-09-28T08:56:39.991Z,7.10
2022-09-28T08:59:17.516Z,6.90
2022-09-28T09:01:58.027Z,7.10
2022-09-28T09:04:31.368Z,7.90
2022-09-28T09:07:45.881Z,8.00
2022-09-28T09:10:36.652Z,7.30
2022-09-28T09:13:27.059Z,6.40
2022-09-28T09:16:05.757Z,6.60
2022-09-28T09:19:06.232Z,5.50
2022-09-28T09:22:01.649Z,5.20
2022-09-28T09:24:44.077Z,5.60
2022-09-28T09:27:39.327Z,5.40
2022-09-28T09:30:19.216Z,5.60
2022-09-28T09:33:28.219Z,4.80
2022-09-28T09:36:54.209Z,5.20
2022-09-28T09:40:16.640Z,4.80
2022-09-28T09:43:16.189Z,5.30
2022-09-28T09:46:16.121Z,4.60
2022-09-28T09:49:16.550Z,3.70
2022-09-28T09:51:56.098Z,3.40
2022-09-28T09:54:31.683Z,3.70
2022-09-28T09:57:09.140Z,3.50
2022-09-28T09:59:53.817Z,3.90
2022-09-28T10:02:34.221Z,3.60
2022-09-28T10:05:21.994Z,2.90
2022-09-28T10:08:01.494Z,2.80
2022-09-28T10:10:37.492Z,3.00
2022-09-28T10:13:14.795Z,3.00
2022-09-28T10:15:50.603Z,2.90
2022-09-28T10:18:30.345Z,2.70
2022-09-28T10:21:32.551Z,2.30
2022-09-28T10:24:19.004Z,3.00
2022-09-28T10:26:55.759Z,3.20
2022-09-28T10:31:59.247Z,2.70
2022-09-28T10:34:35.694Z,3.00
2022-09-28T10:37:14.259Z,3.50
2022-09-28T10:40:28.323Z,3.20
2022-09-28T10:43:06.180Z,3.70
2022-09-28T10:45:40.359Z,3.60
2022-09-28T10:48:20.717Z,3.40
2022-09-28T10:51:06.705Z,3.30
2022-09-28T10:53:40.186Z,3.30
2022-09-28T10:56:28.593Z,3.10
2022-09-28T10:59:26.440Z,3.10
2022-09-28T11:02:02.546Z,2.90
2022-09-28T11:04:41.357Z,3.10
2022-09-28T11:07:20.639Z,3.30
2022-09-28T11:09:54.657Z,3.30
2022-09-28T11:12:29.781Z,3.10
2022-09-28T11:15:04.940Z,3.10
2022-09-28T11:17:40.615Z,3.00
2022-09-28T11:20:34.979Z,3.50
2022-09-28T11:23:23.433Z,3.10
2022-09-28T11:26:06.556Z,3.10
2022-09-28T11:28:42.250Z,3.00
2022-09-28T11:31:29.188Z,2.80
2022-09-28T11:34:15.167Z,3.00
2022-09-28T11:37:13.598Z,2.70
2022-09-28T11:39:55.437Z,2.80
2022-09-28T11:42:38.690Z,2.80
2022-09-28T11:45:37.011Z,3.10
2022-09-28T11:48:13.166Z,2.70
2022-09-28T11:50:51.568Z,2.90
2022-09-28T11:53:28.605Z,2.80
2022-09-28T11:56:13.513Z,3.10
2022-09-28T11:58:48.621Z,2.70
2022-09-28T12:01:27.567Z,2.60
2022-09-28T12:04:26.784Z,2.40
2022-09-28T12:07:05.320Z,2.30
2022-09-28T12:09:44.602Z,2.10
2022-09-28T12:12:32.533Z,2.10
2022-09-28T12:15:15.402Z,2.20
2022-09-28T12:17:53.003Z,2.20
2022-09-28T12:20:28.468Z,1.70
2022-09-28T12:23:08.441Z,2.20
2022-09-28T12:25:46.297Z,2.20
2022-09-28T12:28:29.427Z,1.70
2022-09-28T12:31:09.159Z,1.80
2022-09-28T12:33:42.946Z,2.00
2022-09-28T12:36:30.289Z,1.60
2022-09-28T12:39:40.653Z,2.10
2022-09-28T12:42:27.771Z,1.90
2022-09-28T12:45:13.788Z,1.80
2022-09-28T12:48:09.036Z,1.60
2022-09-28T12:50:56.820Z,1.60
2022-09-28T12:53:55.329Z,1.90
2022-09-28T12:56:38.496Z,1.70
2022-09-28T12:59:20.953Z,1.60
2022-09-28T13:02:38.266Z,2.00
2022-09-28T13:05:25.673Z,2.30
2022-09-28T13:10:37.362Z,2.40
2022-09-28T13:13:23.249Z,2.80
2022-09-28T13:16:02.519Z,2.90
2022-09-28T13:18:42.482Z,3.40
2022-09-28T13:21:24.090Z,2.80
2022-09-28T13:24:08.999Z,2.80
2022-09-28T13:26:48.570Z,2.80
2022-09-28T13:29:22.292Z,3.40
2022-09-28T13:31:57.166Z,3.20
2022-09-28T13:34:32.232Z,3.00
2022-09-28T13:37:24.904Z,2.90
2022-09-28T13:39:57.682Z,2.70
2022-09-28T13:42:51.872Z,3.00
2022-09-28T13:45:47.615Z,3.40
2022-09-28T13:48:24.284Z,3.30
2022-09-28T13:51:15.934Z,3.60
2022-09-28T13:54:31.775Z,3.80
2022-09-28T13:57:17.104Z,3.50
2022-09-28T13:59:59.201Z,3.40
2022-09-28T14:02:37.722Z,3.00
2022-09-28T14:05:46.469Z,3.30
2022-09-28T14:08:41.279Z,3.10
2022-09-28T14:11:45.057Z,3.40
2022-09-28T14:14:45.764Z,3.10
2022-09-28T14:17:50.536Z,2.80
2022-09-28T14:20:27.494Z,2.90
2022-09-28T14:23:21.100Z,2.90
2022-09-28T14:26:24.169Z,3.00
2022-09-28T14:29:10.057Z,2.80
2022-09-28T14:31:45.398Z,2.40
2022-09-28T14:34:36.745Z,3.00
2022-09-28T14:37:44.446Z,3.00
2022-09-28T14:40:48.720Z,2.60
2022-09-28T14:43:38.628Z,2.80
2022-09-28T14:46:36.227Z,2.80
2022-09-28T14:49:47.663Z,2.30
2022-09-28T14:52:39.194Z,2.40
2022-09-28T14:55:23.687Z,2.50
2022-09-28T14:57:59.068Z,2.30
2022-09-28T15:00:32.700Z,2.00
2022-09-28T15:03:10.222Z,2.50
2022-09-28T15:05:48.174Z,2.00
2022-09-28T15:08:22.820Z,2.40
2022-09-28T15:10:54.997Z,2.20
2022-09-28T15:13:30.115Z,2.40
2022-09-28T15:16:09.921Z,2.30
2022-09-28T15:19:08.362Z,2.20
2022-09-28T15:21:42.395Z,2.10
2022-09-28T15:24:33.065Z,2.30
2022-09-28T15:27:19.113Z,2.60
2022-09-28T15:30:01.596Z,2.20
2022-09-28T15:32:34.862Z,2.20
2022-09-28T15:35:17.444Z,2.30
2022-09-28T15:37:52.159Z,2.10
2022-09-28T15:40:32.627Z,2.40
2022-09-28T15:43:21.446Z,2.70
2022-09-28T15:46:02.665Z,2.50
2022-09-28T15:48:42.355Z,2.00
2022-09-28T15:51:14.635Z,2.70
2022-09-28T15:53:56.123Z,2.60
2022-09-28T15:56:29.837Z,2.50
2022-09-28T15:59:26.494Z,2.70
2022-09-28T16:02:14.212Z,2.70
2022-09-28T16:04:50.647Z,2.70
2022-09-28T16:07:28.512Z,3.30
2022-09-28T16:10:06.310Z,3.10
2022-09-28T16:12:48.720Z,3.20
2022-09-28T16:15:23.977Z,3.70
2022-09-28T16:17:58.114Z,3.10
2022-09-28T16:20:34.459Z,3.40
2022-09-28T16:23:21.344Z,3.00
2022-09-28T16:25:56.466Z,3.80
2022-09-28T16:28:46.150Z,3.50
2022-09-28T16:31:29.742Z,3.50
2022-09-28T16:34:11.551Z,3.00
2022-09-28T16:36:45.584Z,3.40
2022-09-28T16:39:19.262Z,4.60
2022-09-28T16:41:53.928Z,4.60
2022-09-28T16:44:29.329Z,3.30
2022-09-28T16:47:01.537Z,4.00
2022-09-28T16:49:34.778Z,4.00
2022-09-28T16:52:10.131Z,4.50
2022-09-28T16:54:59.468Z,5.80
2022-09-28T16:57:31.286Z,5.00
2022-09-28T17:00:03.839Z,4.00
2022-09-28T17:02:46.420Z,4.10
2022-09-28T17:05:20.369Z,3.90
2022-09-28T17:08:01.021Z,3.90
2022-09-28T17:10:55.719Z,4.10
2022-09-28T17:13:33.356Z,4.80
2022-09-28T17:16:10.454Z,4.70
2022-09-28T17:18:42.778Z,4.50
2022-09-28T17:21:16.957Z,6.80
2022-09-28T17:23:50.340Z,6.50
2022-09-28T17:26:30.401Z,7.50
2022-09-28T17:29:02.990Z,6.80
2022-09-28T17:31:35.062Z,6.30
2022-09-28T17:34:06.928Z,6.60
2022-09-28T17:36:39.231Z,5.30
2022-09-28T17:39:14.225Z,5.20
2022-09-28T17:41:46.288Z,6.20
2022-09-28T17:44:19.093Z,5.00
2022-09-28T17:46:52.442Z,5.30
2022-09-28T17:49:24.355Z,5.30
2022-09-28T17:51:56.245Z,5.50
2022-09-28T17:54:28.117Z,4.60
2022-09-28T17:57:00.215Z,5.30
2022-09-28T17:59:32.220Z,5.60
2022-09-28T18:02:04.329Z,5.60
2022-09-28T18:04:51.385Z,5.70
2022-09-28T18:07:23.849Z,5.50
2022-09-28T18:09:58.270Z,6.10
2022-09-28T18:12:30.234Z,6.40
2022-09-28T18:15:02.056Z,6.20
2022-09-28T18:17:34.151Z,6.00
2022-09-28T18:20:07.401Z,7.00
2022-09-28T18:22:39.587Z,7.20
2022-09-28T18:25:12.207Z,6.70
2022-09-28T18:27:44.221Z,7.50
2022-09-28T18:30:16.099Z,7.80
2022-09-28T18:32:47.861Z,8.50
2022-09-28T18:35:22.993Z,8.00
2022-09-28T18:37:55.588Z,6.10
2022-09-28T18:40:27.778Z,6.30
2022-09-28T18:42:59.601Z,6.30
2022-09-28T18:45:31.464Z,6.50
2022-09-28T18:48:03.338Z,6.30
2022-09-28T18:50:35.729Z,5.70
2022-09-28T18:53:13.746Z,6.60
2022-09-28T18:55:45.835Z,5.60
2022-09-28T18:58:17.792Z,4.80
2022-09-28T19:00:49.654Z,3.90
2022-09-28T19:03:21.678Z,3.80
2022-09-28T19:05:53.768Z,3.40
2022-09-28T19:08:27.725Z,4.00
2022-09-28T19:11:09.012Z,4.30
2022-09-28T19:13:41.788Z,4.10
2022-09-28T19:16:17.053Z,3.70
2022-09-28T19:18:50.790Z,3.70
2022-09-28T19:21:22.756Z,3.30
2022-09-28T19:23:55.487Z,3.90
2022-09-28T19:26:28.948Z,3.70
2022-09-28T19:29:02.941Z,3.50
2022-09-28T19:31:35.870Z,2.90
2022-09-28T19:34:11.786Z,3.80
2022-09-28T19:36:46.766Z,2.80
2022-09-28T19:39:19.360Z,2.70
2022-09-28T19:41:52.496Z,2.30
2022-09-28T19:44:26.982Z,2.10
2022-09-28T19:47:06.744Z,2.50
2022-09-28T19:49:41.826Z,2.30
2022-09-28T19:52:17.179Z,2.20
2022-09-28T19:54:56.968Z,1.90
2022-09-28T19:57:31.081Z,2.30
2022-09-28T20:00:04.178Z,1.70
2022-09-28T20:02:41.554Z,2.30
2022-09-28T20:05:13.566Z,2.40
2022-09-28T20:07:46.954Z,2.40
2022-09-28T20:10:18.961Z,2.30
2022-09-28T20:12:52.347Z,2.00
2022-09-28T20:15:24.173Z,1.90
2022-09-28T20:17:56.190Z,2.20
2022-09-28T20:20:28.334Z,2.20
2022-09-28T20:23:00.864Z,2.40
2022-09-28T20:25:33.059Z,2.30
2022-09-28T20:28:05.975Z,2.20
2022-09-28T20:30:39.684Z,2.10
2022-09-28T20:33:15.709Z,2.20
2022-09-28T20:35:50.864Z,2.70
2022-09-28T20:38:23.836Z,2.70
2022-09-28T20:40:59.930Z,2.40
2022-09-28T20:43:34.609Z,2.90
2022-09-28T20:46:07.945Z,3.00
2022-09-28T20:48:40.199Z,2.70
2022-09-28T20:51:15.420Z,3.20
2022-09-28T20:53:51.444Z,3.20
2022-09-28T20:56:25.295Z,3.00
2022-09-28T20:58:57.729Z,2.90
2022-09-28T21:01:31.948Z,2.70
2022-09-28T21:04:06.295Z,3.60
2022-09-28T21:06:41.114Z,3.90
2022-09-28T21:09:14.277Z,3.80
2022-09-28T21:11:46.939Z,3.30
2022-09-28T21:14:18.942Z,3.30
2022-09-28T21:16:51.410Z,3.60
2022-09-28T21:19:24.179Z,3.10
2022-09-28T21:21:56.145Z,4.00
2022-09-28T21:24:28.465Z,4.20
2022-09-28T21:27:00.449Z,4.00
2022-09-28T21:29:32.868Z,4.20
2022-09-28T21:32:06.094Z,4.20
2022-09-28T21:34:38.025Z,4.20
2022-09-28T21:37:10.198Z,4.70
2022-09-28T21:39:42.076Z,4.10
2022-09-28T21:42:14.015Z,4.00
2022-09-28T21:44:46.000Z,4.60
2022-09-28T21:47:17.786Z,4.60
2022-09-28T21:49:49.566Z,4.70
2022-09-28T21:52:21.402Z,4.40
2022-09-28T21:54:53.535Z,4.60
2022-09-28T21:57:25.524Z,5.10
2022-09-28T21:59:57.494Z,4.90
2022-09-28T22:02:29.883Z,5.60
2022-09-28T22:05:01.749Z,5.40
2022-09-28T22:07:34.046Z,5.90
2022-09-28T22:10:06.405Z,6.00
2022-09-28T22:12:38.622Z,6.10
2022-09-28T22:15:12.621Z,5.60
2022-09-28T22:17:44.671Z,5.40
2022-09-28T22:20:16.750Z,6.30
2022-09-28T22:22:53.097Z,6.30
2022-09-28T22:25:25.346Z,7.00
2022-09-28T22:27:57.344Z,7.70
2022-09-28T22:30:29.371Z,7.40
2022-09-28T22:33:01.128Z,7.90
2022-09-28T22:35:32.947Z,8.00
2022-09-28T22:38:05.663Z,7.90
2022-09-28T22:40:38.298Z,8.40
2022-09-28T22:43:10.384Z,8.40
2022-09-28T22:45:42.267Z,8.40
2022-09-28T22:48:14.284Z,8.90
2022-09-28T22:50:52.550Z,9.10
2022-09-28T22:53:24.464Z,9.70
2022-09-28T22:55:57.427Z,9.60
2022-09-28T22:58:29.686Z,11.00
2022-09-28T23:01:08.292Z,11.50
2022-09-28T23:12:05.895Z,16.70
2022-09-28T23:14:39.289Z,17.90
2022-09-28T23:17:11.448Z,20.60
2022-09-28T23:19:43.963Z,19.60
2022-09-28T23:22:16.334Z,18.90
2022-09-28T23:24:48.833Z,19.60
2022-09-28T23:27:21.217Z,19.60
2022-09-28T23:29:54.508Z,18.30
2022-09-28T23:32:31.743Z,18.50
2022-09-28T23:35:04.341Z,18.80
2022-09-28T23:37:37.769Z,18.10
2022-09-28T23:40:11.528Z,16.60
2022-09-28T23:42:43.828Z,14.90
2022-09-28T23:45:17.211Z,14.30
2022-09-28T23:47:49.671Z,13.80
2022-09-28T23:50:21.774Z,14.20
2022-09-28T23:52:54.730Z,15.00
2022-09-28T23:55:27.135Z,14.80
2022-09-28T23:57:59.501Z,16.10
